sensor_id;sensor_type;location;lat;lon;timestamp;temperature;humidity
50067;DHT22;35952;52.524;13.340;2024-01-30T00:02:10;3.80;99.90
50067;DHT22;35952;52.524;13.340;2024-01-30T00:04:35;3.80;99.90
50067;DHT22;35952;52.524;13.340;2024-01-30T00:07:01;3.80;99.90
50067;DHT22;35952;52.524;13.340;2024-01-30T00:09:26;3.90;99.90
50067;DHT22;35952;52.524;13.340;2024-01-30T00:11:52;3.90;99.90
50067;DHT22;35952;52.524;13.340;2024-01-30T00:14:17;3.90;99.90
50067;DHT22;35952;52.524;13.340;2024-01-30T00:16:42;3.80;99.90
50067;DHT22;35952;52.524;13.340;2024-01-30T00:19:08;3.80;99.90
50067;DHT22;35952;52.524;13.340;2024-01-30T00:21:34;3.80;99.90
50067;DHT22;35952;52.524;13.340;2024-01-30T00:23:59;3.80;99.90
50067;DHT22;35952;52.524;13.340;2024-01-30T00:26:25;3.80;99.90
50067;DHT22;35952;52.524;13.340;2024-01-30T00:28:50;3.80;99.90
50067;DHT22;35952;52.524;13.340;2024-01-30T00:31:16;3.80;99.90
50067;DHT22;35952;52.524;13.340;2024-01-30T00:33:42;3.80;99.90
50067;DHT22;35952;52.524;13.340;2024-01-30T00:36:08;3.80;99.90
50067;DHT22;35952;52.524;13.340;2024-01-30T00:38:34;3.80;99.90
50067;DHT22;35952;52.524;13.340;2024-01-30T00:41:00;3.80;99.90
50067;DHT22;35952;52.524;13.340;2024-01-30T00:43:27;3.80;99.90
50067;DHT22;35952;52.524;13.340;2024-01-30T00:45:52;3.80;99.90
50067;DHT22;35952;52.524;13.340;2024-01-30T00:48:18;3.70;99.90
50067;DHT22;35952;52.524;13.340;2024-01-30T00:50:44;3.70;99.90
50067;DHT22;35952;52.524;13.340;2024-01-30T00:53:09;3.70;99.90
50067;DHT22;35952;52.524;13.340;2024-01-30T00:55:35;3.60;99.90
50067;DHT22;35952;52.524;13.340;2024-01-30T00:58:01;3.60;99.90
50067;DHT22;35952;52.524;13.340;2024-01-30T01:00:26;3.60;99.90
50067;DHT22;35952;52.524;13.340;2024-01-30T01:02:55;3.50;99.90
50067;DHT22;35952;52.524;13.340;2024-01-30T01:05:21;3.60;99.90
50067;DHT22;35952;52.524;13.340;2024-01-30T01:07:46;3.60;99.90
50067;DHT22;35952;52.524;13.340;2024-01-30T01:10:13;3.60;99.90
50067;DHT22;35952;52.524;13.340;2024-01-30T01:12:39;3.50;99.90
50067;DHT22;35952;52.524;13.340;2024-01-30T01:15:05;3.50;99.90
50067;DHT22;35952;52.524;13.340;2024-01-30T01:17:31;3.50;99.90
50067;DHT22;35952;52.524;13.340;2024-01-30T01:19:57;3.50;99.90
50067;DHT22;35952;52.524;13.340;2024-01-30T01:22:22;3.50;99.90
50067;DHT22;35952;52.524;13.340;2024-01-30T01:24:48;3.50;99.90
50067;DHT22;35952;52.524;13.340;2024-01-30T01:27:13;3.50;99.90
50067;DHT22;35952;52.524;13.340;2024-01-30T01:29:39;3.50;99.90
50067;DHT22;35952;52.524;13.340;2024-01-30T01:32:05;3.40;99.90
50067;DHT22;35952;52.524;13.340;2024-01-30T01:34:30;3.40;99.90
50067;DHT22;35952;52.524;13.340;2024-01-30T01:36:56;3.40;99.90
50067;DHT22;35952;52.524;13.340;2024-01-30T01:39:22;3.40;99.90
50067;DHT22;35952;52.524;13.340;2024-01-30T01:41:49;3.40;99.90
50067;DHT22;35952;52.524;13.340;2024-01-30T01:44:14;3.40;99.90
50067;DHT22;35952;52.524;13.340;2024-01-30T01:46:40;3.40;99.90
50067;DHT22;35952;52.524;13.340;2024-01-30T01:49:06;3.30;99.90
50067;DHT22;35952;52.524;13.340;2024-01-30T01:51:34;3.40;99.90
50067;DHT22;35952;52.524;13.340;2024-01-30T01:54:03;3.40;99.90
50067;DHT22;35952;52.524;13.340;2024-01-30T01:56:30;3.40;99.90
50067;DHT22;35952;52.524;13.340;2024-01-30T01:59:00;3.30;99.90
50067;DHT22;35952;52.524;13.340;2024-01-30T02:01:30;3.30;99.90
50067;DHT22;35952;52.524;13.340;2024-01-30T02:03:56;3.40;99.90
50067;DHT22;35952;52.524;13.340;2024-01-30T02:06:21;3.30;99.90
50067;DHT22;35952;52.524;13.340;2024-01-30T02:08:47;3.30;99.90
50067;DHT22;35952;52.524;13.340;2024-01-30T02:11:13;3.30;99.90
50067;DHT22;35952;52.524;13.340;2024-01-30T02:13:39;3.30;99.90
50067;DHT22;35952;52.524;13.340;2024-01-30T02:16:06;3.30;99.90
50067;DHT22;35952;52.524;13.340;2024-01-30T02:18:31;3.30;99.90
50067;DHT22;35952;52.524;13.340;2024-01-30T02:20:58;3.30;99.90
50067;DHT22;35952;52.524;13.340;2024-01-30T02:23:27;3.30;99.90
50067;DHT22;35952;52.524;13.340;2024-01-30T02:25:53;3.30;99.90
50067;DHT22;35952;52.524;13.340;2024-01-30T02:28:19;3.30;99.90
50067;DHT22;35952;52.524;13.340;2024-01-30T02:30:46;3.30;99.90
50067;DHT22;35952;52.524;13.340;2024-01-30T02:33:12;3.30;99.90
50067;DHT22;35952;52.524;13.340;2024-01-30T02:35:38;3.30;99.90
50067;DHT22;35952;52.524;13.340;2024-01-30T02:38:04;3.30;99.90
50067;DHT22;35952;52.524;13.340;2024-01-30T02:40:30;3.30;99.90
50067;DHT22;35952;52.524;13.340;2024-01-30T02:42:57;3.30;99.90
50067;DHT22;35952;52.524;13.340;2024-01-30T02:45:23;3.30;99.90
50067;DHT22;35952;52.524;13.340;2024-01-30T02:47:48;3.30;99.90
50067;DHT22;35952;52.524;13.340;2024-01-30T02:50:14;3.40;99.90
50067;DHT22;35952;52.524;13.340;2024-01-30T02:52:40;3.40;99.90
50067;DHT22;35952;52.524;13.340;2024-01-30T02:55:06;3.40;99.90
50067;DHT22;35952;52.524;13.340;2024-01-30T02:57:31;3.40;99.90
50067;DHT22;35952;52.524;13.340;2024-01-30T02:59:57;3.40;99.90
50067;DHT22;35952;52.524;13.340;2024-01-30T03:02:22;3.40;99.90
50067;DHT22;35952;52.524;13.340;2024-01-30T03:04:48;3.40;99.90
50067;DHT22;35952;52.524;13.340;2024-01-30T03:07:13;3.40;99.90
50067;DHT22;35952;52.524;13.340;2024-01-30T03:09:41;3.30;99.90
50067;DHT22;35952;52.524;13.340;2024-01-30T03:12:07;3.30;99.90
50067;DHT22;35952;52.524;13.340;2024-01-30T03:14:32;3.30;99.90
50067;DHT22;35952;52.524;13.340;2024-01-30T03:16:58;3.20;99.90
50067;DHT22;35952;52.524;13.340;2024-01-30T03:19:23;3.20;99.90
50067;DHT22;35952;52.524;13.340;2024-01-30T03:21:49;3.20;99.90
50067;DHT22;35952;52.524;13.340;2024-01-30T03:24:15;3.20;99.90
50067;DHT22;35952;52.524;13.340;2024-01-30T03:26:40;3.10;99.90
50067;DHT22;35952;52.524;13.340;2024-01-30T03:29:06;3.20;99.90
50067;DHT22;35952;52.524;13.340;2024-01-30T03:31:31;3.20;99.90
50067;DHT22;35952;52.524;13.340;2024-01-30T03:33:57;3.10;99.90
50067;DHT22;35952;52.524;13.340;2024-01-30T03:36:23;3.10;99.90
50067;DHT22;35952;52.524;13.340;2024-01-30T03:38:49;3.10;99.90
50067;DHT22;35952;52.524;13.340;2024-01-30T03:41:14;3.10;99.90
50067;DHT22;35952;52.524;13.340;2024-01-30T03:43:40;3.00;99.90
50067;DHT22;35952;52.524;13.340;2024-01-30T03:46:06;3.10;99.90
50067;DHT22;35952;52.524;13.340;2024-01-30T03:48:31;3.00;99.90
50067;DHT22;35952;52.524;13.340;2024-01-30T03:50:57;2.90;99.90
50067;DHT22;35952;52.524;13.340;2024-01-30T03:53:22;2.90;99.90
50067;DHT22;35952;52.524;13.340;2024-01-30T03:55:48;2.90;99.90
50067;DHT22;35952;52.524;13.340;2024-01-30T03:58:13;2.90;99.90
50067;DHT22;35952;52.524;13.340;2024-01-30T04:00:39;2.90;99.90
50067;DHT22;35952;52.524;13.340;2024-01-30T04:03:06;2.90;99.90
50067;DHT22;35952;52.524;13.340;2024-01-30T04:05:32;2.90;99.90
50067;DHT22;35952;52.524;13.340;2024-01-30T04:07:57;2.90;99.90
50067;DHT22;35952;52.524;13.340;2024-01-30T04:10:23;2.80;99.90
50067;DHT22;35952;52.524;13.340;2024-01-30T04:12:50;2.80;99.90
50067;DHT22;35952;52.524;13.340;2024-01-30T04:15:17;2.90;99.90
50067;DHT22;35952;52.524;13.340;2024-01-30T04:17:43;2.90;99.90
50067;DHT22;35952;52.524;13.340;2024-01-30T04:20:15;2.90;99.90
50067;DHT22;35952;52.524;13.340;2024-01-30T04:22:43;2.90;99.90
50067;DHT22;35952;52.524;13.340;2024-01-30T04:25:09;2.90;99.90
50067;DHT22;35952;52.524;13.340;2024-01-30T04:27:34;2.90;99.90
50067;DHT22;35952;52.524;13.340;2024-01-30T04:30:00;2.80;99.90
50067;DHT22;35952;52.524;13.340;2024-01-30T04:32:25;2.80;99.90
50067;DHT22;35952;52.524;13.340;2024-01-30T04:34:51;2.80;99.90
50067;DHT22;35952;52.524;13.340;2024-01-30T04:37:16;2.80;99.90
50067;DHT22;35952;52.524;13.340;2024-01-30T04:39:42;2.90;99.90
50067;DHT22;35952;52.524;13.340;2024-01-30T04:42:07;2.90;99.90
50067;DHT22;35952;52.524;13.340;2024-01-30T04:44:33;2.80;99.90
50067;DHT22;35952;52.524;13.340;2024-01-30T04:46:58;3.00;99.90
50067;DHT22;35952;52.524;13.340;2024-01-30T04:49:27;2.90;99.90
50067;DHT22;35952;52.524;13.340;2024-01-30T04:51:52;2.80;99.90
50067;DHT22;35952;52.524;13.340;2024-01-30T04:54:18;2.80;99.90
50067;DHT22;35952;52.524;13.340;2024-01-30T04:56:43;2.80;99.90
50067;DHT22;35952;52.524;13.340;2024-01-30T04:59:09;2.80;99.90
50067;DHT22;35952;52.524;13.340;2024-01-30T05:01:35;2.80;99.90
50067;DHT22;35952;52.524;13.340;2024-01-30T05:04:00;2.80;99.90
50067;DHT22;35952;52.524;13.340;2024-01-30T05:06:27;2.80;99.90
50067;DHT22;35952;52.524;13.340;2024-01-30T05:08:54;2.80;99.90
50067;DHT22;35952;52.524;13.340;2024-01-30T05:11:19;2.70;99.90
50067;DHT22;35952;52.524;13.340;2024-01-30T05:13:45;2.70;99.90
50067;DHT22;35952;52.524;13.340;2024-01-30T05:16:10;2.80;99.90
50067;DHT22;35952;52.524;13.340;2024-01-30T05:18:36;2.80;99.90
50067;DHT22;35952;52.524;13.340;2024-01-30T05:21:02;2.70;99.90
50067;DHT22;35952;52.524;13.340;2024-01-30T05:23:28;2.80;99.90
50067;DHT22;35952;52.524;13.340;2024-01-30T05:25:53;2.80;99.90
50067;DHT22;35952;52.524;13.340;2024-01-30T05:28:19;2.80;99.90
50067;DHT22;35952;52.524;13.340;2024-01-30T05:30:44;2.80;99.90
50067;DHT22;35952;52.524;13.340;2024-01-30T05:33:10;2.90;99.90
50067;DHT22;35952;52.524;13.340;2024-01-30T05:35:38;2.90;99.90
50067;DHT22;35952;52.524;13.340;2024-01-30T05:38:03;2.90;99.90
50067;DHT22;35952;52.524;13.340;2024-01-30T05:40:29;2.90;99.90
50067;DHT22;35952;52.524;13.340;2024-01-30T05:42:55;2.80;99.90
50067;DHT22;35952;52.524;13.340;2024-01-30T05:45:21;2.80;99.90
50067;DHT22;35952;52.524;13.340;2024-01-30T05:47:48;2.90;99.90
50067;DHT22;35952;52.524;13.340;2024-01-30T05:50:14;2.90;99.90
50067;DHT22;35952;52.524;13.340;2024-01-30T05:52:39;2.80;99.90
50067;DHT22;35952;52.524;13.340;2024-01-30T05:55:05;2.80;99.90
50067;DHT22;35952;52.524;13.340;2024-01-30T05:57:31;2.80;99.90
50067;DHT22;35952;52.524;13.340;2024-01-30T05:59:57;2.80;99.90
50067;DHT22;35952;52.524;13.340;2024-01-30T06:02:22;2.80;99.90
50067;DHT22;35952;52.524;13.340;2024-01-30T06:04:48;2.70;99.90
50067;DHT22;35952;52.524;13.340;2024-01-30T06:07:14;2.80;99.90
50067;DHT22;35952;52.524;13.340;2024-01-30T06:09:39;2.80;99.90
50067;DHT22;35952;52.524;13.340;2024-01-30T06:12:06;2.70;99.90
50067;DHT22;35952;52.524;13.340;2024-01-30T06:14:32;2.80;99.90
50067;DHT22;35952;52.524;13.340;2024-01-30T06:16:58;2.80;99.90
50067;DHT22;35952;52.524;13.340;2024-01-30T06:19:24;2.80;99.90
50067;DHT22;35952;52.524;13.340;2024-01-30T06:21:50;2.80;99.90
50067;DHT22;35952;52.524;13.340;2024-01-30T06:24:16;2.80;99.90
50067;DHT22;35952;52.524;13.340;2024-01-30T06:26:42;2.90;99.90
50067;DHT22;35952;52.524;13.340;2024-01-30T06:29:07;2.90;99.90
50067;DHT22;35952;52.524;13.340;2024-01-30T06:31:39;2.90;99.90
50067;DHT22;35952;52.524;13.340;2024-01-30T06:34:05;2.90;99.90
50067;DHT22;35952;52.524;13.340;2024-01-30T06:36:30;3.00;99.90
50067;DHT22;35952;52.524;13.340;2024-01-30T06:38:56;3.00;99.90
50067;DHT22;35952;52.524;13.340;2024-01-30T06:41:21;3.00;99.90
50067;DHT22;35952;52.524;13.340;2024-01-30T06:43:47;3.00;99.90
50067;DHT22;35952;52.524;13.340;2024-01-30T06:46:12;3.00;99.90
50067;DHT22;35952;52.524;13.340;2024-01-30T06:48:41;3.10;99.90
50067;DHT22;35952;52.524;13.340;2024-01-30T06:51:09;3.10;99.90
50067;DHT22;35952;52.524;13.340;2024-01-30T06:53:34;3.10;99.90
50067;DHT22;35952;52.524;13.340;2024-01-30T06:56:00;3.10;99.90
50067;DHT22;35952;52.524;13.340;2024-01-30T06:58:27;3.20;99.90
50067;DHT22;35952;52.524;13.340;2024-01-30T07:00:53;3.20;99.90
50067;DHT22;35952;52.524;13.340;2024-01-30T07:03:19;3.20;99.90
50067;DHT22;35952;52.524;13.340;2024-01-30T07:05:45;3.20;99.90
50067;DHT22;35952;52.524;13.340;2024-01-30T07:08:10;3.30;99.90
50067;DHT22;35952;52.524;13.340;2024-01-30T07:10:36;3.30;99.90
50067;DHT22;35952;52.524;13.340;2024-01-30T07:13:01;3.20;99.90
50067;DHT22;35952;52.524;13.340;2024-01-30T07:15:27;3.20;99.90
50067;DHT22;35952;52.524;13.340;2024-01-30T07:17:53;3.30;99.90
50067;DHT22;35952;52.524;13.340;2024-01-30T07:20:19;3.30;99.90
50067;DHT22;35952;52.524;13.340;2024-01-30T07:22:45;3.30;99.90
50067;DHT22;35952;52.524;13.340;2024-01-30T07:25:11;3.40;99.90
50067;DHT22;35952;52.524;13.340;2024-01-30T07:27:36;3.50;99.90
50067;DHT22;35952;52.524;13.340;2024-01-30T07:30:02;3.50;99.90
50067;DHT22;35952;52.524;13.340;2024-01-30T07:32:28;3.50;99.90
50067;DHT22;35952;52.524;13.340;2024-01-30T07:34:53;3.50;99.90
50067;DHT22;35952;52.524;13.340;2024-01-30T07:37:19;3.60;99.90
50067;DHT22;35952;52.524;13.340;2024-01-30T07:39:44;3.60;99.90
50067;DHT22;35952;52.524;13.340;2024-01-30T07:42:10;3.70;99.90
50067;DHT22;35952;52.524;13.340;2024-01-30T07:44:36;3.70;99.90
50067;DHT22;35952;52.524;13.340;2024-01-30T07:47:01;3.80;99.90
50067;DHT22;35952;52.524;13.340;2024-01-30T07:49:28;3.90;99.90
50067;DHT22;35952;52.524;13.340;2024-01-30T07:51:54;4.00;99.90
50067;DHT22;35952;52.524;13.340;2024-01-30T07:54:19;3.90;99.90
50067;DHT22;35952;52.524;13.340;2024-01-30T07:56:45;4.00;99.90
50067;DHT22;35952;52.524;13.340;2024-01-30T07:59:11;4.00;99.90
50067;DHT22;35952;52.524;13.340;2024-01-30T08:01:37;4.00;99.90
50067;DHT22;35952;52.524;13.340;2024-01-30T08:04:02;4.10;99.90
50067;DHT22;35952;52.524;13.340;2024-01-30T08:06:28;4.00;99.90
50067;DHT22;35952;52.524;13.340;2024-01-30T08:08:53;4.00;99.90
50067;DHT22;35952;52.524;13.340;2024-01-30T08:11:22;4.10;99.90
50067;DHT22;35952;52.524;13.340;2024-01-30T08:13:55;4.00;99.90
50067;DHT22;35952;52.524;13.340;2024-01-30T08:16:20;4.10;99.90
50067;DHT22;35952;52.524;13.340;2024-01-30T08:18:46;4.10;99.90
50067;DHT22;35952;52.524;13.340;2024-01-30T08:21:12;4.20;99.90
50067;DHT22;35952;52.524;13.340;2024-01-30T08:23:41;4.20;99.90
50067;DHT22;35952;52.524;13.340;2024-01-30T08:26:08;4.40;99.90
50067;DHT22;35952;52.524;13.340;2024-01-30T08:28:33;4.40;99.90
50067;DHT22;35952;52.524;13.340;2024-01-30T08:30:59;4.50;99.90
50067;DHT22;35952;52.524;13.340;2024-01-30T08:33:24;4.60;99.90
50067;DHT22;35952;52.524;13.340;2024-01-30T08:35:50;4.70;99.90
50067;DHT22;35952;52.524;13.340;2024-01-30T08:38:15;4.90;99.90
50067;DHT22;35952;52.524;13.340;2024-01-30T08:40:41;4.80;99.90
50067;DHT22;35952;52.524;13.340;2024-01-30T08:43:07;4.80;99.90
50067;DHT22;35952;52.524;13.340;2024-01-30T08:45:34;4.90;99.90
50067;DHT22;35952;52.524;13.340;2024-01-30T08:48:00;4.80;99.90
50067;DHT22;35952;52.524;13.340;2024-01-30T08:50:25;4.80;99.90
50067;DHT22;35952;52.524;13.340;2024-01-30T08:52:51;5.00;99.90
50067;DHT22;35952;52.524;13.340;2024-01-30T08:55:16;5.10;99.90
50067;DHT22;35952;52.524;13.340;2024-01-30T08:57:42;5.10;99.90
50067;DHT22;35952;52.524;13.340;2024-01-30T09:00:08;5.30;99.90
50067;DHT22;35952;52.524;13.340;2024-01-30T09:02:35;5.30;99.90
50067;DHT22;35952;52.524;13.340;2024-01-30T09:05:01;5.60;99.90
50067;DHT22;35952;52.524;13.340;2024-01-30T09:07:27;5.90;99.90
50067;DHT22;35952;52.524;13.340;2024-01-30T09:09:52;5.90;99.90
50067;DHT22;35952;52.524;13.340;2024-01-30T09:12:18;5.90;99.90
50067;DHT22;35952;52.524;13.340;2024-01-30T09:14:43;5.90;99.90
50067;DHT22;35952;52.524;13.340;2024-01-30T09:17:09;6.00;99.90
50067;DHT22;35952;52.524;13.340;2024-01-30T09:19:34;6.00;99.90
50067;DHT22;35952;52.524;13.340;2024-01-30T09:22:00;6.00;99.90
50067;DHT22;35952;52.524;13.340;2024-01-30T09:24:26;6.00;99.90
50067;DHT22;35952;52.524;13.340;2024-01-30T09:26:52;6.00;99.90
50067;DHT22;35952;52.524;13.340;2024-01-30T09:29:18;6.30;99.90
50067;DHT22;35952;52.524;13.340;2024-01-30T09:31:47;6.20;99.90
50067;DHT22;35952;52.524;13.340;2024-01-30T09:34:13;6.30;99.90
50067;DHT22;35952;52.524;13.340;2024-01-30T09:36:39;6.30;99.90
50067;DHT22;35952;52.524;13.340;2024-01-30T09:39:04;6.10;99.90
50067;DHT22;35952;52.524;13.340;2024-01-30T09:41:33;6.10;99.90
50067;DHT22;35952;52.524;13.340;2024-01-30T09:44:06;6.20;99.90
50067;DHT22;35952;52.524;13.340;2024-01-30T09:46:34;6.20;99.90
50067;DHT22;35952;52.524;13.340;2024-01-30T09:49:02;6.40;99.90
50067;DHT22;35952;52.524;13.340;2024-01-30T09:51:28;6.50;99.90
50067;DHT22;35952;52.524;13.340;2024-01-30T09:53:54;6.70;99.90
50067;DHT22;35952;52.524;13.340;2024-01-30T09:56:21;6.60;99.90
50067;DHT22;35952;52.524;13.340;2024-01-30T09:58:47;6.50;99.90
50067;DHT22;35952;52.524;13.340;2024-01-30T10:01:14;6.50;99.90
50067;DHT22;35952;52.524;13.340;2024-01-30T10:03:44;6.70;99.90
50067;DHT22;35952;52.524;13.340;2024-01-30T10:06:10;6.70;99.90
50067;DHT22;35952;52.524;13.340;2024-01-30T10:08:35;6.70;99.90
50067;DHT22;35952;52.524;13.340;2024-01-30T10:11:01;6.70;99.90
50067;DHT22;35952;52.524;13.340;2024-01-30T10:13:27;6.80;99.90
50067;DHT22;35952;52.524;13.340;2024-01-30T10:15:53;7.10;99.90
50067;DHT22;35952;52.524;13.340;2024-01-30T10:18:18;7.20;99.90
50067;DHT22;35952;52.524;13.340;2024-01-30T10:20:44;7.10;99.90
50067;DHT22;35952;52.524;13.340;2024-01-30T10:23:09;7.00;99.90
50067;DHT22;35952;52.524;13.340;2024-01-30T10:25:35;7.00;99.90
50067;DHT22;35952;52.524;13.340;2024-01-30T10:28:01;7.10;99.90
50067;DHT22;35952;52.524;13.340;2024-01-30T10:30:27;7.20;99.90
50067;DHT22;35952;52.524;13.340;2024-01-30T10:32:53;7.10;99.90
50067;DHT22;35952;52.524;13.340;2024-01-30T10:35:19;7.10;99.90
50067;DHT22;35952;52.524;13.340;2024-01-30T10:37:47;7.10;99.90
50067;DHT22;35952;52.524;13.340;2024-01-30T10:40:13;7.30;99.90
50067;DHT22;35952;52.524;13.340;2024-01-30T10:42:43;7.30;99.90
50067;DHT22;35952;52.524;13.340;2024-01-30T10:45:11;7.30;99.90
50067;DHT22;35952;52.524;13.340;2024-01-30T10:47:49;7.50;99.90
50067;DHT22;35952;52.524;13.340;2024-01-30T10:50:15;7.30;99.90
50067;DHT22;35952;52.524;13.340;2024-01-30T10:52:42;7.30;99.90
50067;DHT22;35952;52.524;13.340;2024-01-30T10:55:10;7.40;99.90
50067;DHT22;35952;52.524;13.340;2024-01-30T10:57:36;7.30;99.90
50067;DHT22;35952;52.524;13.340;2024-01-30T11:00:04;7.60;99.90
50067;DHT22;35952;52.524;13.340;2024-01-30T11:02:31;7.70;99.90
50067;DHT22;35952;52.524;13.340;2024-01-30T11:04:58;7.60;99.90
50067;DHT22;35952;52.524;13.340;2024-01-30T11:07:29;7.80;99.90
50067;DHT22;35952;52.524;13.340;2024-01-30T11:12:25;8.00;99.90
50067;DHT22;35952;52.524;13.340;2024-01-30T11:15:11;8.10;99.90
50067;DHT22;35952;52.524;13.340;2024-01-30T11:20:16;7.80;99.90
50067;DHT22;35952;52.524;13.340;2024-01-30T11:22:44;8.10;99.90
50067;DHT22;35952;52.524;13.340;2024-01-30T11:25:14;8.30;99.90
50067;DHT22;35952;52.524;13.340;2024-01-30T11:27:41;8.00;99.90
50067;DHT22;35952;52.524;13.340;2024-01-30T11:30:07;7.90;99.90
50067;DHT22;35952;52.524;13.340;2024-01-30T11:32:33;8.20;99.90
50067;DHT22;35952;52.524;13.340;2024-01-30T11:34:59;8.30;99.90
50067;DHT22;35952;52.524;13.340;2024-01-30T11:37:25;8.40;99.90
50067;DHT22;35952;52.524;13.340;2024-01-30T11:39:53;8.60;99.90
50067;DHT22;35952;52.524;13.340;2024-01-30T11:42:19;8.80;99.90
50067;DHT22;35952;52.524;13.340;2024-01-30T11:44:48;8.50;99.90
50067;DHT22;35952;52.524;13.340;2024-01-30T11:47:14;8.50;99.90
50067;DHT22;35952;52.524;13.340;2024-01-30T11:49:41;8.80;99.90
50067;DHT22;35952;52.524;13.340;2024-01-30T11:52:07;8.90;99.90
50067;DHT22;35952;52.524;13.340;2024-01-30T11:54:32;9.00;99.90
50067;DHT22;35952;52.524;13.340;2024-01-30T11:56:58;9.10;99.90
50067;DHT22;35952;52.524;13.340;2024-01-30T11:59:24;8.90;99.90
50067;DHT22;35952;52.524;13.340;2024-01-30T12:01:51;9.00;99.90
50067;DHT22;35952;52.524;13.340;2024-01-30T12:04:17;8.90;99.90
50067;DHT22;35952;52.524;13.340;2024-01-30T12:06:43;9.10;99.90
50067;DHT22;35952;52.524;13.340;2024-01-30T12:09:09;9.30;99.90
50067;DHT22;35952;52.524;13.340;2024-01-30T12:11:48;8.80;99.90
50067;DHT22;35952;52.524;13.340;2024-01-30T12:14:16;9.00;99.90
50067;DHT22;35952;52.524;13.340;2024-01-30T12:16:41;8.50;99.90
50067;DHT22;35952;52.524;13.340;2024-01-30T12:19:07;8.60;99.90
50067;DHT22;35952;52.524;13.340;2024-01-30T12:21:34;8.70;99.90
50067;DHT22;35952;52.524;13.340;2024-01-30T12:24:00;8.80;99.90
50067;DHT22;35952;52.524;13.340;2024-01-30T12:26:27;8.70;99.90
50067;DHT22;35952;52.524;13.340;2024-01-30T12:28:56;8.50;99.90
50067;DHT22;35952;52.524;13.340;2024-01-30T12:31:27;8.40;99.90
50067;DHT22;35952;52.524;13.340;2024-01-30T12:33:53;8.30;99.90
50067;DHT22;35952;52.524;13.340;2024-01-30T12:36:19;8.60;99.90
50067;DHT22;35952;52.524;13.340;2024-01-30T12:38:44;8.90;99.90
50067;DHT22;35952;52.524;13.340;2024-01-30T12:41:10;8.80;99.90
50067;DHT22;35952;52.524;13.340;2024-01-30T12:43:36;8.50;99.90
50067;DHT22;35952;52.524;13.340;2024-01-30T12:46:03;8.60;99.90
50067;DHT22;35952;52.524;13.340;2024-01-30T12:48:28;8.70;99.90
50067;DHT22;35952;52.524;13.340;2024-01-30T12:50:55;8.50;99.90
50067;DHT22;35952;52.524;13.340;2024-01-30T12:53:21;8.70;99.90
50067;DHT22;35952;52.524;13.340;2024-01-30T12:55:46;8.50;99.90
50067;DHT22;35952;52.524;13.340;2024-01-30T12:58:12;8.80;99.90
50067;DHT22;35952;52.524;13.340;2024-01-30T13:00:37;8.80;99.90
50067;DHT22;35952;52.524;13.340;2024-01-30T13:03:03;9.00;99.90
50067;DHT22;35952;52.524;13.340;2024-01-30T13:05:29;9.10;99.90
50067;DHT22;35952;52.524;13.340;2024-01-30T13:07:55;8.90;99.90
50067;DHT22;35952;52.524;13.340;2024-01-30T13:10:22;8.50;99.90
50067;DHT22;35952;52.524;13.340;2024-01-30T13:12:48;8.50;99.90
50067;DHT22;35952;52.524;13.340;2024-01-30T13:15:13;8.60;99.90
50067;DHT22;35952;52.524;13.340;2024-01-30T13:17:39;8.80;99.90
50067;DHT22;35952;52.524;13.340;2024-01-30T13:20:05;9.00;99.90
50067;DHT22;35952;52.524;13.340;2024-01-30T13:22:33;9.00;99.90
50067;DHT22;35952;52.524;13.340;2024-01-30T13:24:59;9.10;99.90
50067;DHT22;35952;52.524;13.340;2024-01-30T13:27:24;8.80;99.90
50067;DHT22;35952;52.524;13.340;2024-01-30T13:29:50;8.80;99.90
50067;DHT22;35952;52.524;13.340;2024-01-30T13:32:15;8.80;99.90
50067;DHT22;35952;52.524;13.340;2024-01-30T13:34:41;8.60;99.90
50067;DHT22;35952;52.524;13.340;2024-01-30T13:37:07;8.90;99.90
50067;DHT22;35952;52.524;13.340;2024-01-30T13:39:33;9.10;99.90
50067;DHT22;35952;52.524;13.340;2024-01-30T13:41:58;9.00;99.90
50067;DHT22;35952;52.524;13.340;2024-01-30T13:44:24;8.90;99.90
50067;DHT22;35952;52.524;13.340;2024-01-30T13:46:49;8.90;99.90
50067;DHT22;35952;52.524;13.340;2024-01-30T13:49:15;8.80;99.90
50067;DHT22;35952;52.524;13.340;2024-01-30T13:51:41;9.00;99.90
50067;DHT22;35952;52.524;13.340;2024-01-30T13:54:07;8.90;99.90
50067;DHT22;35952;52.524;13.340;2024-01-30T13:56:33;9.00;99.90
50067;DHT22;35952;52.524;13.340;2024-01-30T13:58:59;9.00;99.90
50067;DHT22;35952;52.524;13.340;2024-01-30T14:01:26;8.90;99.90
50067;DHT22;35952;52.524;13.340;2024-01-30T14:03:52;8.90;99.90
50067;DHT22;35952;52.524;13.340;2024-01-30T14:06:18;8.80;99.90
50067;DHT22;35952;52.524;13.340;2024-01-30T14:08:43;8.90;99.90
50067;DHT22;35952;52.524;13.340;2024-01-30T14:11:09;8.90;99.90
50067;DHT22;35952;52.524;13.340;2024-01-30T14:13:35;8.90;99.90
50067;DHT22;35952;52.524;13.340;2024-01-30T14:16:00;8.90;99.90
50067;DHT22;35952;52.524;13.340;2024-01-30T14:18:29;8.80;99.90
50067;DHT22;35952;52.524;13.340;2024-01-30T14:20:58;9.00;99.90
50067;DHT22;35952;52.524;13.340;2024-01-30T14:23:24;9.10;99.90
50067;DHT22;35952;52.524;13.340;2024-01-30T14:25:50;8.90;99.90
50067;DHT22;35952;52.524;13.340;2024-01-30T14:28:16;8.80;99.90
50067;DHT22;35952;52.524;13.340;2024-01-30T14:30:42;8.80;99.90
50067;DHT22;35952;52.524;13.340;2024-01-30T14:33:08;8.90;99.90
50067;DHT22;35952;52.524;13.340;2024-01-30T14:35:33;9.00;99.90
50067;DHT22;35952;52.524;13.340;2024-01-30T14:37:59;8.80;99.90
50067;DHT22;35952;52.524;13.340;2024-01-30T14:40:24;8.80;99.90
50067;DHT22;35952;52.524;13.340;2024-01-30T14:42:50;8.80;99.90
50067;DHT22;35952;52.524;13.340;2024-01-30T14:45:16;8.80;99.90
50067;DHT22;35952;52.524;13.340;2024-01-30T14:47:42;8.80;99.90
50067;DHT22;35952;52.524;13.340;2024-01-30T14:50:08;8.70;99.90
50067;DHT22;35952;52.524;13.340;2024-01-30T14:52:33;8.70;99.90
50067;DHT22;35952;52.524;13.340;2024-01-30T14:54:59;8.70;99.90
50067;DHT22;35952;52.524;13.340;2024-01-30T14:57:25;8.60;99.90
50067;DHT22;35952;52.524;13.340;2024-01-30T14:59:51;8.60;99.90
50067;DHT22;35952;52.524;13.340;2024-01-30T15:02:19;8.60;99.90
50067;DHT22;35952;52.524;13.340;2024-01-30T15:04:54;8.60;99.90
50067;DHT22;35952;52.524;13.340;2024-01-30T15:07:21;8.50;99.90
50067;DHT22;35952;52.524;13.340;2024-01-30T15:09:49;8.40;99.90
50067;DHT22;35952;52.524;13.340;2024-01-30T15:12:14;8.40;99.90
50067;DHT22;35952;52.524;13.340;2024-01-30T15:14:40;8.50;99.90
50067;DHT22;35952;52.524;13.340;2024-01-30T15:17:06;8.50;99.90
50067;DHT22;35952;52.524;13.340;2024-01-30T15:19:32;8.50;99.90
50067;DHT22;35952;52.524;13.340;2024-01-30T15:21:57;8.40;99.90
50067;DHT22;35952;52.524;13.340;2024-01-30T15:24:32;8.30;99.90
50067;DHT22;35952;52.524;13.340;2024-01-30T15:26:58;8.20;99.90
50067;DHT22;35952;52.524;13.340;2024-01-30T15:29:24;8.20;99.90